Time;durP1;ratioP1;P1;durP2;ratioP2;P2;SDS_P1;SDS_P2;PMS_P1;PMS_P2;Temp;Humidity;BMP_temperature;BMP_pressure;BME280_temperature;BME280_humidity;BME280_pressure;Samples;Min_cycle;Max_cycle;Signal;HPM_P1;HPM_P2
2023/10/24 00:01:26;;;;;;;;;;;;;;;22.22;48.15;100949.03;7390689;19;1863;-39
2023/10/24 00:03:54;;;;;;;;;;;;;;;22.19;48.13;100937.72;7394408;19;1459;-40
2023/10/24 00:06:23;;;;;;;;;;;;;;;22.16;48.16;100946.97;7379493;19;1446;-39
2023/10/24 00:08:51;;;;;;;;;;;;;;;22.14;48.41;100923.84;7392291;19;1903;-39
2023/10/24 00:11:20;;;;;;;;;;;;;;;22.08;48.48;100928.00;7393174;19;1625;-39
2023/10/24 00:13:48;;;;;;;;;;;;;;;22.09;48.50;100918.94;7392760;19;1740;-39
2023/10/24 00:16:31;;;;;;;;;;;;;;;22.09;48.03;100915.41;7259985;19;15079909;-39
2023/10/24 00:19:00;;;;;;;;;;;;;;;22.07;48.26;100920.94;7392172;19;1552;-39
2023/10/24 00:21:28;;;;;;;;;;;;;;;22.07;48.29;100906.63;7393133;19;1886;-38
2023/10/24 00:23:56;;;;;;;;;;;;;;;22.05;48.50;100912.16;7394301;19;1657;-39
2023/10/24 00:26:25;;;;;;;;;;;;;;;22.07;48.19;100899.38;7393761;19;1739;-39
2023/10/24 00:28:53;;;;;;;;;;;;;;;22.13;48.11;100896.06;7395590;19;1711;-39
2023/10/24 00:31:21;;;;;;;;;;;;;;;22.08;48.10;100902.91;7395123;19;1744;-39
2023/10/24 00:33:52;;;;;;;;;;;;;;;22.08;48.24;100902.91;7395967;19;1621;-39
2023/10/24 00:36:20;;;;;;;;;;;;;;;22.09;48.08;100915.41;7394942;19;1636;-39
2023/10/24 00:38:49;;;;;;;;;;;;;;;22.12;48.14;100918.59;7394315;19;1475;-39
2023/10/24 00:41:17;;;;;;;;;;;;;;;22.09;48.20;100918.09;7394055;19;1860;-39
2023/10/24 00:43:45;;;;;;;;;;;;;;;22.05;47.96;100913.00;7394223;19;1435;-39
2023/10/24 00:46:14;;;;;;;;;;;;;;;22.02;48.13;100915.13;7394251;19;1674;-39
2023/10/24 00:48:42;;;;;;;;;;;;;;;22.01;48.25;100900.00;7391904;19;1665;-39
2023/10/24 00:51:13;;;;;;;;;;;;;;;22.02;48.30;100898.97;7392746;19;1565;-39
2023/10/24 00:53:42;;;;;;;;;;;;;;;22.03;48.14;100908.78;7393334;19;1562;-39
2023/10/24 00:56:11;;;;;;;;;;;;;;;22.04;48.02;100905.06;7394381;19;1503;-39
2023/10/24 00:58:40;;;;;;;;;;;;;;;22.06;48.05;100892.28;7393908;19;1640;-39
2023/10/24 01:01:12;;;;;;;;;;;;;;;22.11;47.89;100898.06;7391859;19;1849;-39
2023/10/24 01:03:41;;;;;;;;;;;;;;;22.09;47.87;100901.94;7393508;19;2254;-39
2023/10/24 01:06:10;;;;;;;;;;;;;;;22.07;48.09;100896.69;7378513;19;1922;-39
2023/10/24 01:08:41;;;;;;;;;;;;;;;22.09;47.93;100907.31;7393588;19;1826;-39
2023/10/24 01:11:09;;;;;;;;;;;;;;;22.07;48.09;100903.94;7392801;19;1750;-39
2023/10/24 01:13:38;;;;;;;;;;;;;;;22.05;47.87;100901.38;7391576;19;1820;-39
2023/10/24 01:16:07;;;;;;;;;;;;;;;22.05;47.73;100906.78;7391396;19;1624;-39
2023/10/24 01:18:35;;;;;;;;;;;;;;;22.03;48.00;100898.84;7390807;19;2472;-39
2023/10/24 01:21:04;;;;;;;;;;;;;;;22.00;47.94;100899.16;7390437;19;1844;-39
2023/10/24 01:23:35;;;;;;;;;;;;;;;22.00;47.92;100927.91;7393198;19;1559;-38
2023/10/24 01:26:04;;;;;;;;;;;;;;;22.01;47.92;100906.22;7393324;19;1549;-39
2023/10/24 01:28:33;;;;;;;;;;;;;;;22.01;47.83;100897.31;7391758;19;1448;-39
2023/10/24 01:31:01;;;;;;;;;;;;;;;21.98;47.86;100906.50;7390916;19;1743;-39
2023/10/24 01:33:30;;;;;;;;;;;;;;;21.98;48.10;100894.91;7394177;19;1574;-39
2023/10/24 01:35:58;;;;;;;;;;;;;;;21.95;47.75;100900.59;7391664;19;1834;-39
2023/10/24 01:38:26;;;;;;;;;;;;;;;21.99;47.78;100915.47;7390773;19;1824;-39
2023/10/24 01:40:54;;;;;;;;;;;;;;;22.00;47.74;100909.06;7391039;19;1847;-39
2023/10/24 01:43:23;;;;;;;;;;;;;;;22.08;47.88;100921.75;7391123;19;1669;-39
2023/10/24 01:45:51;;;;;;;;;;;;;;;22.01;47.90;100916.16;7392441;19;1628;-39
2023/10/24 01:48:19;;;;;;;;;;;;;;;22.00;48.21;100919.81;7393218;19;1708;-39
2023/10/24 01:50:48;;;;;;;;;;;;;;;21.99;47.82;100920.84;7391547;19;1648;-39
2023/10/24 01:53:16;;;;;;;;;;;;;;;21.96;47.96;100915.75;7390332;19;1641;-39
2023/10/24 01:55:44;;;;;;;;;;;;;;;21.97;48.32;100920.16;7392769;19;2064;-44
2023/10/24 01:58:15;;;;;;;;;;;;;;;21.94;48.33;100909.66;7391413;19;1656;-39
2023/10/24 02:00:44;;;;;;;;;;;;;;;21.97;48.18;100912.91;7390237;19;1874;-39
2023/10/24 02:03:12;;;;;;;;;;;;;;;21.98;48.07;100916.44;7390895;19;1645;-38
2023/10/24 02:05:40;;;;;;;;;;;;;;;21.96;48.24;100908.50;7376456;19;1466;-39
2023/10/24 02:08:09;;;;;;;;;;;;;;;22.01;47.82;100908.91;7388790;19;1497;-39
2023/10/24 02:10:37;;;;;;;;;;;;;;;21.98;48.01;100906.50;7390090;19;1502;-39
2023/10/24 02:13:05;;;;;;;;;;;;;;;22.00;47.78;100909.06;7390139;19;1703;-39
2023/10/24 02:15:38;;;;;;;;;;;;;;;22.00;48.22;100911.75;7391504;19;1471;-39
2023/10/24 02:18:06;;;;;;;;;;;;;;;22.00;47.95;100906.38;7389383;19;1624;-40
2023/10/24 02:20:32;;;;;;;;;;;;;;;21.94;48.09;100909.66;7390338;19;1471;-57
2023/10/24 02:23:00;;;;;;;;;;;;;;;21.98;48.03;100908.38;7388618;19;1903;-39
2023/10/24 02:25:28;;;;;;;;;;;;;;;21.96;47.94;100921.13;7391126;19;1608;-39
2023/10/24 02:27:57;;;;;;;;;;;;;;;21.95;48.00;100906.00;7391159;19;1428;-39
2023/10/24 02:30:26;;;;;;;;;;;;;;;21.96;47.96;100926.50;7391867;19;1514;-40
2023/10/24 02:33:00;;;;;;;;;;;;;;;21.94;48.09;100921.28;7391876;19;1490;-40
2023/10/24 02:35:28;;;;;;;;;;;;;;;21.92;48.14;100912.50;7391345;19;1508;-45
2023/10/24 02:37:57;;;;;;;;;;;;;;;21.90;48.01;100908.28;7391091;19;1454;-45
2023/10/24 02:40:25;;;;;;;;;;;;;;;21.95;48.00;100924.84;7393011;19;1569;-41
2023/10/24 02:42:53;;;;;;;;;;;;;;;21.93;47.99;100921.44;7390415;19;1932;-40
2023/10/24 02:45:22;;;;;;;;;;;;;;;21.92;47.71;100919.75;7393683;19;1463;-39
2023/10/24 02:47:50;;;;;;;;;;;;;;;21.94;47.61;100931.19;7390727;19;1639;-40
2023/10/24 02:50:21;;;;;;;;;;;;;;;21.90;48.03;100911.81;7391406;19;1718;-39
2023/10/24 02:52:50;;;;;;;;;;;;;;;21.95;47.75;100922.16;7390805;19;1866;-39
2023/10/24 02:55:18;;;;;;;;;;;;;;;21.92;47.88;100928.66;7390598;19;1340;-39
2023/10/24 02:57:47;;;;;;;;;;;;;;;21.84;47.88;100907.91;7391222;19;1450;-39
2023/10/24 03:00:16;;;;;;;;;;;;;;;21.87;48.10;100914.81;7389749;19;1796;-39
2023/10/24 03:02:44;;;;;;;;;;;;;;;21.87;48.11;100925.59;7389299;19;1868;-40
2023/10/24 03:05:13;;;;;;;;;;;;;;;21.85;47.91;100933.81;7390586;19;3034;-40
2023/10/24 03:07:43;;;;;;;;;;;;;;;21.87;47.97;100935.53;7378082;19;1617;-40
2023/10/24 03:10:12;;;;;;;;;;;;;;;21.93;47.62;100924.16;7391140;19;1668;-40
2023/10/24 03:12:40;;;;;;;;;;;;;;;21.91;47.69;100931.53;7396535;19;1453;-40
2023/10/24 03:15:09;;;;;;;;;;;;;;;21.93;47.60;100924.97;7395641;19;2390;-40
2023/10/24 03:17:37;;;;;;;;;;;;;;;21.93;47.67;100918.75;7395607;19;1799;-40
2023/10/24 03:20:06;;;;;;;;;;;;;;;21.92;47.46;100922.44;7394759;19;1601;-40
2023/10/24 03:22:34;;;;;;;;;;;;;;;21.89;47.44;100912.81;7394704;19;1853;-41
2023/10/24 03:25:06;;;;;;;;;;;;;;;21.91;47.25;100936.91;7396190;19;1649;-40
2023/10/24 03:27:34;;;;;;;;;;;;;;;21.90;47.71;100924.44;7394990;19;1947;-40
2023/10/24 03:30:02;;;;;;;;;;;;;;;21.92;47.55;100930.50;7397553;19;1649;-46
2023/10/24 03:32:32;;;;;;;;;;;;;;;21.89;47.44;100939.75;7398335;19;1707;-41
2023/10/24 03:35:00;;;;;;;;;;;;;;;21.87;47.60;100936.34;7397629;19;1486;-40
2023/10/24 03:37:29;;;;;;;;;;;;;;;21.89;47.77;100949.69;7397908;19;1581;-45
2023/10/24 03:39:57;;;;;;;;;;;;;;;21.88;47.82;100942.59;7396038;19;1570;-39
2023/10/24 03:42:28;;;;;;;;;;;;;;;21.99;47.54;100945.91;7391377;19;1844;-39
2023/10/24 03:44:56;;;;;;;;;;;;;;;21.98;47.49;100946.91;7391903;19;2252;-39
2023/10/24 03:47:24;;;;;;;;;;;;;;;22.00;47.63;100931.47;7392746;19;1485;-40
2023/10/24 03:49:53;;;;;;;;;;;;;;;22.01;47.72;100948.47;7397463;19;1506;-43
2023/10/24 03:52:21;;;;;;;;;;;;;;;21.98;47.73;100946.06;7396368;19;1383;-40
2023/10/24 03:54:49;;;;;;;;;;;;;;;21.81;48.31;100950.41;7397833;19;1907;-40
2023/10/24 03:57:18;;;;;;;;;;;;;;;21.87;47.87;100939.06;7396043;19;1537;-40
2023/10/24 03:59:49;;;;;;;;;;;;;;;21.75;48.11;100946.47;7395319;19;1878;-40
2023/10/24 04:02:17;;;;;;;;;;;;;;;21.71;48.61;100942.38;7395157;19;1865;-40
2023/10/24 04:04:45;;;;;;;;;;;;;;;21.88;47.96;100943.41;7396184;19;1568;-42
2023/10/24 04:07:14;;;;;;;;;;;;;;;21.86;47.98;100940.03;7380091;19;1470;-40
2023/10/24 04:09:42;;;;;;;;;;;;;;;21.96;47.59;100962.34;6876770;19;10000352;-40
2023/10/24 04:12:10;;;;;;;;;;;;;;;21.98;48.00;100949.59;7385572;19;1469;-40
2023/10/24 04:14:39;;;;;;;;;;;;;;;21.96;48.15;100964.22;7385690;19;1360;-39
2023/10/24 04:17:10;;;;;;;;;;;;;;;21.88;48.12;100953.34;7387961;19;1843;-40
2023/10/24 04:19:38;;;;;;;;;;;;;;;21.89;48.19;100958.59;7388278;19;1720;-39
2023/10/24 04:22:06;;;;;;;;;;;;;;;21.88;48.18;100962.25;7383438;19;1853;-40
2023/10/24 04:24:34;;;;;;;;;;;;;;;21.87;48.24;100962.44;7389125;19;1514;-39
2023/10/24 04:27:03;;;;;;;;;;;;;;;21.92;48.16;100973.59;7388116;19;1496;-39
2023/10/24 04:29:32;;;;;;;;;;;;;;;21.89;47.85;100981.97;7389061;19;1471;-39
2023/10/24 04:32:00;;;;;;;;;;;;;;;21.85;47.91;100971.50;7388939;19;1455;-39
2023/10/24 04:34:31;;;;;;;;;;;;;;;21.91;47.76;100970.06;7388915;19;1582;-39
2023/10/24 04:37:00;;;;;;;;;;;;;;;21.93;47.61;100983.38;7389235;19;1862;-40
2023/10/24 04:39:29;;;;;;;;;;;;;;;21.85;47.73;100987.66;7390550;19;1514;-39
2023/10/24 04:41:57;;;;;;;;;;;;;;;21.86;47.84;100988.50;7386575;19;1850;-40
2023/10/24 04:44:25;;;;;;;;;;;;;;;21.88;47.75;100980.28;7388259;19;1728;-39
2023/10/24 04:46:54;;;;;;;;;;;;;;;21.88;47.59;100988.34;7388572;19;1826;-39
2023/10/24 04:49:23;;;;;;;;;;;;;;;21.87;47.41;100979.44;7388531;19;1565;-39
2023/10/24 04:51:54;;;;;;;;;;;;;;;21.82;47.49;100966.41;7388748;19;1846;-39
2023/10/24 04:54:22;;;;;;;;;;;;;;;21.86;47.73;100980.41;7385987;19;1870;-39
2023/10/24 04:56:51;;;;;;;;;;;;;;;21.88;47.43;100972.19;7389444;19;1189;-40
2023/10/24 04:59:19;;;;;;;;;;;;;;;21.94;47.52;100982.38;7388612;19;1638;-39
2023/10/24 05:01:48;;;;;;;;;;;;;;;21.98;47.29;100991.84;7381150;19;1849;-39
2023/10/24 05:04:16;;;;;;;;;;;;;;;22.00;47.18;100996.09;7381626;19;1384;-42
2023/10/24 05:06:44;;;;;;;;;;;;;;;21.90;47.37;100994.44;7371271;19;1588;-41
2023/10/24 05:09:17;;;;;;;;;;;;;;;21.85;47.53;101003.81;7385543;19;2147;-42
2023/10/24 05:11:45;;;;;;;;;;;;;;;21.89;47.26;101006.22;7386044;19;1545;-42
2023/10/24 05:14:13;;;;;;;;;;;;;;;21.88;47.37;100991.03;7386325;19;1478;-42
2023/10/24 05:16:42;;;;;;;;;;;;;;;21.96;47.00;101012.69;7386332;19;1602;-41
2023/10/24 05:19:10;;;;;;;;;;;;;;;21.97;47.25;101011.69;7384820;19;1380;-42
2023/10/24 05:21:38;;;;;;;;;;;;;;;21.92;45.67;101032.81;7385864;19;1673;-42
2023/10/24 05:24:07;;;;;;;;;;;;;;;21.90;45.39;101015.97;7383875;19;1888;-41
2023/10/24 05:26:38;;;;;;;;;;;;;;;21.79;44.94;101019.72;7387484;19;1903;-41
2023/10/24 05:29:07;;;;;;;;;;;;;;;21.82;44.35;101030.16;7387582;19;1856;-41
2023/10/24 05:31:35;;;;;;;;;;;;;;;21.74;46.15;101047.06;7387403;19;1268;-42
2023/10/24 05:34:03;;;;;;;;;;;;;;;21.73;44.96;101042.69;7388665;19;1480;-41
2023/10/24 05:36:31;;;;;;;;;;;;;;;21.75;45.31;101056.00;7387435;19;1409;-41
2023/10/24 05:39:00;;;;;;;;;;;;;;;21.87;45.08;101070.13;7393405;19;1570;-41
2023/10/24 05:41:28;;;;;;;;;;;;;;;21.88;45.04;101074.50;7389777;19;1552;-41
2023/10/24 05:43:59;;;;;;;;;;;;;;;21.94;45.14;101082.00;7388117;19;1851;-41
2023/10/24 05:46:27;;;;;;;;;;;;;;;22.00;45.00;101065.25;7388809;19;1954;-41
2023/10/24 05:48:56;;;;;;;;;;;;;;;22.00;44.63;101067.94;7387916;19;1463;-41
2023/10/24 05:51:25;;;;;;;;;;;;;;;22.07;44.77;101101.38;7388904;19;1561;-41
2023/10/24 05:53:53;;;;;;;;;;;;;;;22.07;44.53;101057.44;7388907;19;1404;-41
2023/10/24 05:56:22;;;;;;;;;;;;;;;22.17;44.53;101045.59;7388618;19;1546;-41
2023/10/24 05:58:50;;;;;;;;;;;;;;;22.19;44.51;101062.47;7391172;19;1276;-41
2023/10/24 06:01:22;;;;;;;;;;;;;;;22.19;44.72;101059.78;7390230;19;1507;-41
2023/10/24 06:03:50;;;;;;;;;;;;;;;22.19;44.65;101067.84;7388917;19;1839;-41
2023/10/24 06:06:19;;;;;;;;;;;;;;;22.23;44.74;101055.78;7389938;19;1649;-41
2023/10/24 06:08:47;;;;;;;;;;;;;;;22.34;44.75;101060.16;7377188;19;1613;-41
2023/10/24 09:24:03;;;;;;;;;;;;;;;23.11;45.89;100995.03;5988730;19;17913728;-39
2023/10/24 09:26:31;;;;;;;;;;;;;;;23.00;46.22;100943.00;7423475;19;1637;-39
2023/10/24 09:28:59;;;;;;;;;;;;;;;23.12;45.96;100932.84;7421545;19;1956;-36
2023/10/24 09:31:28;;;;;;;;;;;;;;;23.17;45.96;100940.44;7422148;19;1837;-37
2023/10/24 09:33:56;;;;;;;;;;;;;;;23.09;46.11;100935.00;7421854;19;1474;-39
2023/10/24 09:36:26;;;;;;;;;;;;;;;23.15;45.83;100934.38;7421567;19;1513;-39
2023/10/24 09:38:54;;;;;;;;;;;;;;;23.12;46.04;100926.56;7418641;19;1549;-39
2023/10/24 09:41:25;;;;;;;;;;;;;;;23.06;46.05;100917.28;7424387;19;1061;-39
2023/10/24 09:43:55;;;;;;;;;;;;;;;23.15;46.09;100916.31;7420857;19;1926;-39
2023/10/24 09:46:25;;;;;;;;;;;;;;;23.04;46.25;100922.00;7422702;19;1593;-39
2023/10/24 09:48:55;;;;;;;;;;;;;;;23.03;45.97;100914.91;7421176;19;1662;-39
2023/10/24 09:51:24;;;;;;;;;;;;;;;23.10;45.99;100909.72;7421753;19;1849;-39
2023/10/24 09:53:52;;;;;;;;;;;;;;;23.12;46.04;100903.16;7421097;19;1522;-39
2023/10/24 09:56:22;;;;;;;;;;;;;;;23.18;45.99;100899.84;7421111;19;1979;-39
2023/10/24 09:58:53;;;;;;;;;;;;;;;23.10;46.03;100898.91;7421841;19;1493;-40
2023/10/24 10:01:23;;;;;;;;;;;;;;;23.12;46.04;100921.19;7422461;19;1562;-39
2023/10/24 10:03:52;;;;;;;;;;;;;;;23.18;45.78;100877.41;7424996;19;1475;-39
2023/10/24 10:06:20;;;;;;;;;;;;;;;23.31;45.75;100888.59;7424808;19;1521;-39
2023/10/24 10:08:51;;;;;;;;;;;;;;;23.28;45.73;100913.22;7422438;19;1598;-39
2023/10/24 10:11:20;;;;;;;;;;;;;;;23.26;45.76;100869.34;7423240;19;1097;-39
2023/10/24 10:13:52;;;;;;;;;;;;;;;23.07;46.28;100856.94;7415094;19;2488;-39
2023/10/24 10:16:31;;;;;;;;;;;;;;;23.08;46.77;100882.91;7417739;19;1475;-42
2023/10/24 10:19:08;;;;;;;;;;;;;;;23.06;46.74;100878.66;7423085;19;1566;-42
2023/10/24 10:21:42;;;;;;;;;;;;;;;23.04;47.16;100865.38;7424912;19;1443;-42
2023/10/24 10:24:25;;;;;;;;;;;;;;;23.01;46.83;100857.53;7403961;19;1294;-42
2023/10/24 10:26:59;;;;;;;;;;;;;;;23.07;47.01;100859.63;7374038;19;1861;-39
2023/10/24 10:29:34;;;;;;;;;;;;;;;23.17;46.85;100871.16;7395922;19;1752;-40
2023/10/24 10:32:14;;;;;;;;;;;;;;;23.16;46.65;100864.06;7393523;19;1849;-40
2023/10/24 10:34:43;;;;;;;;;;;;;;;23.27;46.28;100854.84;7395912;19;1727;-39
2023/10/24 10:37:11;;;;;;;;;;;;;;;23.31;46.50;100861.59;7396651;19;1651;-39
2023/10/24 10:39:40;;;;;;;;;;;;;;;23.24;46.49;100860.56;7395859;19;1693;-40
2023/10/24 10:42:08;;;;;;;;;;;;;;;23.24;46.61;100863.28;7396940;19;1402;-39
2023/10/24 10:44:41;;;;;;;;;;;;;;;23.15;46.61;100850.75;7396916;19;1740;-39
2023/10/24 10:47:14;;;;;;;;;;;;;;;23.08;46.74;100860.47;7396669;19;1384;-40
2023/10/24 10:49:46;;;;;;;;;;;;;;;23.19;46.58;100852.09;7396402;19;1579;-40
2023/10/24 10:52:21;;;;;;;;;;;;;;;23.14;46.82;100870.63;7397574;19;1851;-39
2023/10/24 10:54:56;;;;;;;;;;;;;;;23.00;46.85;100843.22;7397407;19;1861;-40
2023/10/24 10:57:31;;;;;;;;;;;;;;;22.98;46.92;100837.16;7394892;19;1484;-40
2023/10/24 11:00:01;;;;;;;;;;;;;;;22.97;47.03;100834.59;7396477;19;1934;-40
2023/10/24 11:02:39;;;;;;;;;;;;;;;23.05;46.92;100825.75;7396488;19;1899;-39
2023/10/24 11:05:37;;;;;;;;;;;;;;;23.18;46.61;100837.78;7396182;19;1823;-40
2023/10/24 11:08:06;;;;;;;;;;;;;;;23.28;46.31;100821.47;7394946;19;2058;-41
2023/10/24 11:10:49;;;;;;;;;;;;;;;23.27;46.39;100822.47;7395872;19;1926;-40
2023/10/24 11:13:33;;;;;;;;;;;;;;;23.27;46.23;100814.38;7393959;19;1845;-40
2023/10/24 11:16:02;;;;;;;;;;;;;;;23.24;46.37;100812.00;7394654;19;1851;-40
2023/10/24 11:18:34;;;;;;;;;;;;;;;23.13;46.61;100812.28;7393225;19;1591;-40
2023/10/24 11:21:03;;;;;;;;;;;;;;;23.11;46.72;100809.75;7393759;19;1750;-39
2023/10/24 11:23:32;;;;;;;;;;;;;;;23.19;46.39;100808.94;7395107;19;1579;-40
2023/10/24 11:26:00;;;;;;;;;;;;;;;23.25;46.38;100802.91;7393644;19;1633;-39
2023/10/24 11:28:29;;;;;;;;;;;;;;;23.29;46.45;100798.03;7393648;19;1559;-40
2023/10/24 11:30:58;;;;;;;;;;;;;;;23.15;46.98;100811.13;7393896;19;1618;-40
2023/10/24 11:33:26;;;;;;;;;;;;;;;23.08;46.98;100801.13;7393440;19;1827;-39
2023/10/24 11:35:57;;;;;;;;;;;;;;;22.97;47.16;100808.47;7393679;19;1125;-39
2023/10/24 11:38:25;;;;;;;;;;;;;;;22.91;47.54;100798.31;7393653;19;1960;-39
2023/10/24 11:40:54;;;;;;;;;;;;;;;22.96;47.32;100790.63;7392922;19;1955;-39
2023/10/24 11:43:22;;;;;;;;;;;;;;;23.15;46.75;100791.41;7392675;19;1853;-39
2023/10/24 11:45:50;;;;;;;;;;;;;;;23.27;46.53;100795.47;7394889;19;1795;-40
2023/10/24 11:48:19;;;;;;;;;;;;;;;23.33;46.31;100784.03;7392692;19;1408;-39
2023/10/24 11:50:48;;;;;;;;;;;;;;;23.17;46.59;100774.03;7393132;19;1508;-39
2023/10/24 11:53:25;;;;;;;;;;;;;;;23.17;46.78;100778.59;7392392;19;1849;-39
2023/10/24 11:55:54;;;;;;;;;;;;;;;23.19;46.68;100773.88;7392504;19;1636;-39
2023/10/24 11:58:23;;;;;;;;;;;;;;;23.29;46.27;100771.03;7394258;19;1713;-39
2023/10/24 12:00:51;;;;;;;;;;;;;;;23.32;46.42;100765.34;7393902;19;1509;-39
2023/10/24 12:03:20;;;;;;;;;;;;;;;23.32;46.49;100765.34;7394094;19;1396;-40
2023/10/24 12:05:55;;;;;;;;;;;;;;;23.27;46.79;100765.81;7393409;19;1451;-40
2023/10/24 12:08:27;;;;;;;;;;;;;;;23.24;47.04;100768.84;7393234;19;1727;-40
2023/10/24 12:10:56;;;;;;;;;;;;;;;23.14;47.08;100754.63;7395176;19;1945;-40
2023/10/24 12:13:25;;;;;;;;;;;;;;;23.13;46.96;100761.88;7390357;19;1903;-40
2023/10/24 12:15:53;;;;;;;;;;;;;;;22.96;47.17;100752.00;7393970;19;1625;-39
2023/10/24 12:18:22;;;;;;;;;;;;;;;22.94;47.38;100741.38;7391818;19;1510;-40
2023/10/24 12:20:50;;;;;;;;;;;;;;;22.97;47.19;100734.81;7392658;19;1455;-40
2023/10/24 12:23:20;;;;;;;;;;;;;;;23.08;47.19;100739.97;7391734;19;1745;-40
2023/10/24 12:25:51;;;;;;;;;;;;;;;23.11;47.27;100745.00;7390305;19;1709;-39
2023/10/24 12:28:19;;;;;;;;;;;;;;;23.06;47.18;100727.63;7391596;19;1692;-39
2023/10/24 12:30:48;;;;;;;;;;;;;;;23.00;47.21;100724.56;7391292;19;1835;-40
2023/10/24 12:33:16;;;;;;;;;;;;;;;22.99;47.36;100727.41;7391402;19;1845;-39
2023/10/24 12:35:45;;;;;;;;;;;;;;;22.98;47.32;100726.56;7390343;19;1483;-39
2023/10/24 12:38:15;;;;;;;;;;;;;;;23.02;46.93;100719.88;7393796;19;1632;-39
2023/10/24 12:40:44;;;;;;;;;;;;;;;23.02;47.16;100719.88;7391859;19;1397;-40
2023/10/24 12:43:15;;;;;;;;;;;;;;;23.00;47.23;100716.47;7384841;19;2105;-40
2023/10/24 12:45:44;;;;;;;;;;;;;;;23.05;47.12;100712.47;7388472;19;1748;-40
2023/10/24 12:48:13;;;;;;;;;;;;;;;22.93;47.68;100712.72;7389080;19;1585;-39
2023/10/24 12:50:42;;;;;;;;;;;;;;;23.06;47.39;100708.75;7391945;19;1720;-39
2023/10/24 12:53:10;;;;;;;;;;;;;;;23.09;47.11;100711.97;7380240;19;1818;-39
2023/10/24 12:55:39;;;;;;;;;;;;;;;23.17;46.78;100716.53;7392343;19;1404;-39
2023/10/24 12:58:07;;;;;;;;;;;;;;;23.15;47.07;100705.06;7391871;19;1503;-40
2023/10/24 13:00:38;;;;;;;;;;;;;;;23.16;46.71;100718.41;7391813;19;1731;-39
2023/10/24 13:03:06;;;;;;;;;;;;;;;23.29;46.92;100700.88;7392552;19;1605;-39
2023/10/24 13:05:35;;;;;;;;;;;;;;;22.99;47.42;100705.84;7392691;19;1716;-40
2023/10/24 13:08:03;;;;;;;;;;;;;;;23.05;47.07;100690.88;7393714;19;1918;-39
2023/10/24 13:10:32;;;;;;;;;;;;;;;22.94;47.24;100692.84;7392126;19;1563;-40
2023/10/24 13:13:00;;;;;;;;;;;;;;;22.98;47.39;100685.28;7388939;19;1853;-39
2023/10/24 13:15:29;;;;;;;;;;;;;;;22.90;47.67;100685.22;7392593;19;1405;-39
2023/10/24 13:18:00;;;;;;;;;;;;;;;22.88;47.77;100682.72;7392265;19;1671;-39
2023/10/24 13:20:28;;;;;;;;;;;;;;;22.86;47.79;100689.25;7391969;19;1677;-39
2023/10/24 13:22:56;;;;;;;;;;;;;;;22.89;47.87;100680.84;7390796;19;1795;-39
2023/10/24 13:25:25;;;;;;;;;;;;;;;22.92;47.69;100669.72;7391643;19;1757;-40
2023/10/24 13:27:53;;;;;;;;;;;;;;;22.89;47.96;100667.38;7391788;19;1780;-39
2023/10/24 13:30:21;;;;;;;;;;;;;;;22.87;48.05;100667.53;7392068;19;1893;-39
2023/10/24 13:32:49;;;;;;;;;;;;;;;22.82;48.19;100662.63;7390502;19;1868;-40
2023/10/24 13:35:20;;;;;;;;;;;;;;;22.91;47.90;100665.34;7392075;19;2001;-40
2023/10/24 13:37:49;;;;;;;;;;;;;;;22.91;47.91;100676.16;7393189;19;1724;-39
2023/10/24 13:40:18;;;;;;;;;;;;;;;22.92;48.20;100667.91;7388789;19;1516;-39
2023/10/24 13:42:46;;;;;;;;;;;;;;;22.92;48.03;100664.34;7389587;19;1810;-39
2023/10/24 13:45:15;;;;;;;;;;;;;;;22.89;48.14;100673.59;7391687;19;1609;-40
2023/10/24 13:47:43;;;;;;;;;;;;;;;22.85;48.37;100666.84;7391571;19;1510;-39
2023/10/24 13:50:12;;;;;;;;;;;;;;;22.84;48.17;100666.03;7392125;19;1845;-40
2023/10/24 13:52:43;;;;;;;;;;;;;;;22.82;47.96;100667.19;7390580;19;1883;-39
2023/10/24 13:55:11;;;;;;;;;;;;;;;22.82;47.98;100654.56;7390924;19;1480;-39
2023/10/24 13:57:39;;;;;;;;;;;;;;;22.82;48.02;100662.63;7388455;19;2694;-39
2023/10/24 14:00:09;;;;;;;;;;;;;;;22.87;48.23;100659.44;7397135;19;1451;-39
2023/10/24 14:02:38;;;;;;;;;;;;;;;22.80;48.29;100666.47;7396628;19;1771;-39
2023/10/24 14:05:06;;;;;;;;;;;;;;;22.76;48.51;100657.91;7396442;19;1460;-39
2023/10/24 14:07:35;;;;;;;;;;;;;;;22.76;48.43;100646.25;7396929;19;1477;-39
2023/10/24 14:10:06;;;;;;;;;;;;;;;22.77;48.51;100638.00;7398313;19;1530;-40
2023/10/24 14:12:34;;;;;;;;;;;;;;;22.77;48.08;100640.69;7397297;19;1730;-40
2023/10/24 14:15:02;;;;;;;;;;;;;;;22.75;48.18;100634.63;7394699;19;1858;-39
2023/10/24 14:17:31;;;;;;;;;;;;;;;22.74;48.36;100645.56;7397846;19;1575;-39
2023/10/24 14:19:59;;;;;;;;;;;;;;;22.72;48.41;100642.19;7397887;19;1826;-39
2023/10/24 14:22:27;;;;;;;;;;;;;;;22.68;48.40;100632.75;7397308;19;1629;-40
2023/10/24 14:24:56;;;;;;;;;;;;;;;22.68;48.54;100643.53;7397966;19;1562;-39
2023/10/24 14:27:27;;;;;;;;;;;;;;;22.69;48.43;100631.75;7397035;19;1431;-40
2023/10/24 14:29:55;;;;;;;;;;;;;;;22.71;48.50;100648.63;7397733;19;1727;-39
2023/10/24 14:32:23;;;;;;;;;;;;;;;22.66;48.45;100629.38;7397716;19;1650;-40
2023/10/24 14:34:52;;;;;;;;;;;;;;;22.63;48.39;100626.00;7393928;19;1858;-40
2023/10/24 14:37:20;;;;;;;;;;;;;;;22.66;48.52;100626.69;7397093;19;1614;-39
2023/10/24 14:39:49;;;;;;;;;;;;;;;22.67;48.61;100617.59;7397101;19;1847;-39
2023/10/24 14:42:17;;;;;;;;;;;;;;;22.66;48.70;100623.97;7395478;19;1469;-40
2023/10/24 14:44:48;;;;;;;;;;;;;;;22.61;48.61;100616.41;7394915;19;1810;-39
2023/10/24 14:47:16;;;;;;;;;;;;;;;22.62;48.47;100615.38;7396926;19;1577;-39
2023/10/24 14:49:45;;;;;;;;;;;;;;;22.64;48.49;100634.91;7396147;19;1479;-40
2023/10/24 14:52:13;;;;;;;;;;;;;;;22.60;48.74;100610.16;7395765;19;1573;-39
2023/10/24 14:54:42;;;;;;;;;;;;;;;22.61;48.52;100624.47;7395006;19;1851;-40
2023/10/24 14:57:10;;;;;;;;;;;;;;;22.60;48.69;100609.31;7396053;19;1822;-39
2023/10/24 14:59:38;;;;;;;;;;;;;;;22.57;48.74;100607.78;7396022;19;1921;-39
2023/10/24 15:02:09;;;;;;;;;;;;;;;22.56;48.74;100613.34;7397177;19;1764;-39
2023/10/24 15:04:38;;;;;;;;;;;;;;;22.60;48.95;100602.09;7394949;19;1486;-39
2023/10/24 15:07:06;;;;;;;;;;;;;;;22.59;48.74;100605.78;7394873;19;1532;-40
2023/10/24 15:09:32;;;;;;;;;;;;;;;22.59;48.93;100616.56;7394374;19;1731;-40
2023/10/24 15:12:03;;;;;;;;;;;;;;;22.55;48.76;100607.09;7395864;19;1096;-40
2023/10/24 15:14:31;;;;;;;;;;;;;;;22.56;48.77;100603.41;7394780;19;1880;-40
2023/10/24 15:17:00;;;;;;;;;;;;;;;22.52;49.00;100591.28;7395313;19;1408;-40
2023/10/24 15:19:31;;;;;;;;;;;;;;;22.50;48.93;100593.28;7394649;19;1589;-40
2023/10/24 15:21:59;;;;;;;;;;;;;;;22.49;48.97;100599.69;7391602;19;1922;-39
2023/10/24 15:24:27;;;;;;;;;;;;;;;22.46;49.09;100586.50;7393030;19;1317;-42
2023/10/24 15:26:55;;;;;;;;;;;;;;;22.46;48.85;100583.81;7395782;19;1162;-40
2023/10/24 15:29:24;;;;;;;;;;;;;;;22.48;48.67;100602.53;7394889;19;1806;-41
2023/10/24 15:31:52;;;;;;;;;;;;;;;22.52;48.78;100596.66;7394934;19;1487;-39
2023/10/24 15:34:20;;;;;;;;;;;;;;;22.75;48.38;100582.56;7392447;19;1847;-39
2023/10/24 15:36:51;;;;;;;;;;;;;;;22.83;48.35;100590.69;7394353;19;1653;-39
2023/10/24 15:39:20;;;;;;;;;;;;;;;22.77;48.62;100594.03;7393850;19;1388;-39
2023/10/24 15:41:49;;;;;;;;;;;;;;;22.80;48.50;100596.38;7394818;19;2072;-39
2023/10/24 15:44:17;;;;;;;;;;;;;;;22.83;48.37;100593.38;7394398;19;1525;-39
2023/10/24 15:46:45;;;;;;;;;;;;;;;22.91;48.17;100609.56;7395539;19;1120;-39
2023/10/24 15:49:14;;;;;;;;;;;;;;;22.74;48.34;100605.13;7394013;19;1917;-41
2023/10/24 15:51:44;;;;;;;;;;;;;;;22.98;47.78;100598.97;7391714;19;1858;-42
2023/10/24 15:54:15;;;;;;;;;;;;;;;22.83;47.98;100590.69;7392624;19;1865;-42
2023/10/24 15:56:43;;;;;;;;;;;;;;;22.91;48.09;100601.47;7394353;19;1645;-42
2023/10/24 15:59:14;;;;;;;;;;;;;;;22.82;48.96;100602.50;7393238;19;1623;-42
2023/10/24 16:01:43;;;;;;;;;;;;;;;22.74;49.28;100607.84;7393473;19;1580;-42
2023/10/24 16:04:11;;;;;;;;;;;;;;;22.98;48.89;100602.53;7392505;19;1399;-42
2023/10/24 16:06:40;;;;;;;;;;;;;;;22.91;49.00;100590.69;7391573;19;1688;-42
2023/10/24 16:09:08;;;;;;;;;;;;;;;23.12;48.35;100613.69;7391332;19;1951;-42